createdAt,value
2019-02-16T00:00:22.205Z,0
2019-02-16T00:01:24.268Z,0
2019-02-16T00:02:26.346Z,0
2019-02-16T00:03:28.398Z,0
2019-02-16T00:04:30.441Z,0
2019-02-16T00:05:32.473Z,0
2019-02-16T00:06:34.519Z,0
2019-02-16T00:07:36.532Z,0
2019-02-16T00:08:38.601Z,0
2019-02-16T00:09:40.627Z,0
2019-02-16T00:10:42.677Z,0
2019-02-16T00:11:44.704Z,0
2019-02-16T00:12:46.762Z,0
2019-02-16T00:13:49.054Z,0
2019-02-16T00:14:51.094Z,0
2019-02-16T00:15:53.142Z,0
2019-02-16T00:16:55.163Z,0
2019-02-16T00:17:57.220Z,0
2019-02-16T00:18:59.282Z,0
2019-02-16T00:20:01.332Z,0
2019-02-16T00:21:04.119Z,0
2019-02-16T00:22:06.440Z,0
2019-02-16T00:23:08.476Z,0
2019-02-16T00:24:10.540Z,0
2019-02-16T00:25:12.581Z,0
2019-02-16T00:26:14.608Z,0
2019-02-16T00:27:16.651Z,0
2019-02-16T00:28:18.745Z,0
2019-02-16T00:29:20.791Z,0
2019-02-16T00:30:22.828Z,0
2019-02-16T00:31:25.563Z,0
2019-02-16T00:32:27.594Z,0
2019-02-16T00:33:29.641Z,0
2019-02-16T00:34:31.681Z,0
2019-02-16T00:35:33.742Z,0
2019-02-16T00:36:35.770Z,0
2019-02-16T00:37:37.833Z,0
2019-02-16T00:38:39.875Z,0
2019-02-16T00:39:41.928Z,0
2019-02-16T00:40:43.991Z,0
2019-02-16T00:41:46.023Z,0
2019-02-16T00:42:48.085Z,0
2019-02-16T00:43:50.135Z,0
2019-02-16T00:44:52.178Z,0
2019-02-16T00:45:54.873Z,0
2019-02-16T00:46:56.906Z,0
2019-02-16T00:47:58.957Z,0
2019-02-16T00:49:00.972Z,0
2019-02-16T00:50:03.094Z,0
2019-02-16T00:51:13.124Z,0
2019-02-16T00:52:16.069Z,0
2019-02-16T00:53:18.090Z,0
2019-02-16T00:54:20.131Z,0
2019-02-16T00:55:22.164Z,0
2019-02-16T00:56:24.578Z,0
2019-02-16T00:57:26.625Z,0
2019-02-16T00:58:28.645Z,0
2019-02-16T00:59:30.685Z,0
2019-02-16T01:00:32.725Z,0
2019-02-16T01:01:34.772Z,0
2019-02-16T01:02:36.862Z,0
2019-02-16T01:03:39.184Z,0
2019-02-16T01:04:41.208Z,0
2019-02-16T01:05:43.240Z,0
2019-02-16T01:06:45.330Z,0
2019-02-16T01:07:47.374Z,0
2019-02-16T01:08:49.512Z,0
2019-02-16T01:09:51.554Z,0
2019-02-16T01:10:53.576Z,0
2019-02-16T01:11:55.882Z,0
2019-02-16T01:12:57.904Z,0
2019-02-16T01:13:59.955Z,0
2019-02-16T01:15:02.259Z,0
2019-02-16T01:16:04.579Z,0
2019-02-16T01:17:06.608Z,0
2019-02-16T01:18:09.198Z,0
2019-02-16T01:19:11.382Z,0
2019-02-16T01:20:13.420Z,0
2019-02-16T01:21:22.388Z,0
2019-02-16T01:22:25.083Z,0
2019-02-16T01:23:27.138Z,0
2019-02-16T01:24:29.171Z,0
2019-02-16T01:25:31.234Z,0
2019-02-16T01:26:33.253Z,0
2019-02-16T01:27:35.352Z,0
2019-02-16T01:28:37.382Z,0
2019-02-16T01:29:39.411Z,0
2019-02-16T01:30:41.465Z,0
2019-02-16T01:31:43.928Z,0
2019-02-16T01:32:46.018Z,0
2019-02-16T01:33:48.452Z,0
2019-02-16T01:34:50.538Z,0
2019-02-16T01:35:52.613Z,0
2019-02-16T01:36:54.706Z,0
2019-02-16T01:37:56.795Z,0
2019-02-16T01:38:59.173Z,0
2019-02-16T01:40:01.276Z,0
2019-02-16T01:41:03.753Z,0
2019-02-16T01:42:06.216Z,0
2019-02-16T01:43:08.314Z,0
2019-02-16T01:44:10.779Z,0
2019-02-16T01:45:12.866Z,0
2019-02-16T01:46:14.953Z,0
2019-02-16T01:47:17.028Z,0
2019-02-16T01:48:19.087Z,0
2019-02-16T01:49:21.119Z,0
2019-02-16T01:50:23.214Z,0
2019-02-16T01:51:31.594Z,0
2019-02-16T01:52:34.541Z,0
2019-02-16T01:53:36.642Z,0
2019-02-16T01:54:38.748Z,0
2019-02-16T01:55:40.816Z,0
2019-02-16T01:56:42.914Z,0
2019-02-16T01:57:45.008Z,0
2019-02-16T01:58:47.387Z,0
2019-02-16T01:59:50.099Z,0
2019-02-16T02:00:52.277Z,0
2019-02-16T02:01:54.363Z,0
2019-02-16T02:02:56.442Z,0
2019-02-16T02:03:58.550Z,0
2019-02-16T02:05:00.917Z,0
2019-02-16T02:06:03.403Z,0
2019-02-16T02:07:05.496Z,0
2019-02-16T02:08:07.980Z,0
2019-02-16T02:09:12.138Z,0
2019-02-16T02:10:14.424Z,0
2019-02-16T02:11:16.504Z,0
2019-02-16T02:12:18.594Z,0
2019-02-16T02:13:20.700Z,0
2019-02-16T02:14:23.075Z,0
2019-02-16T02:15:25.166Z,0
2019-02-16T02:16:27.264Z,0
2019-02-16T02:17:29.351Z,0
2019-02-16T02:18:31.429Z,0
2019-02-16T02:19:33.530Z,0
2019-02-16T02:20:35.614Z,0
2019-02-16T02:21:41.080Z,0
2019-02-16T02:22:43.858Z,0
2019-02-16T02:23:45.959Z,0
2019-02-16T02:24:48.038Z,0
2019-02-16T02:25:50.149Z,0
2019-02-16T02:26:52.238Z,0
2019-02-16T02:27:54.310Z,0
2019-02-16T02:28:56.395Z,0
2019-02-16T02:29:58.490Z,0
2019-02-16T02:31:00.572Z,0
2019-02-16T02:32:02.678Z,0
2019-02-16T02:33:05.048Z,0
2019-02-16T02:34:07.541Z,0
2019-02-16T02:35:09.648Z,0
2019-02-16T02:36:11.741Z,0
2019-02-16T02:37:14.143Z,0
2019-02-16T02:38:16.229Z,0
2019-02-16T02:39:19.024Z,0
2019-02-16T02:40:21.123Z,0
2019-02-16T02:41:23.212Z,0
2019-02-16T02:42:25.285Z,0
2019-02-16T02:43:27.653Z,0
2019-02-16T02:44:29.745Z,0
2019-02-16T02:45:31.837Z,0
2019-02-16T02:46:33.937Z,0
2019-02-16T02:47:36.412Z,0
2019-02-16T02:48:38.786Z,0
2019-02-16T02:49:41.170Z,0
2019-02-16T02:50:43.394Z,0
2019-02-16T02:51:51.853Z,0
2019-02-16T02:52:56.604Z,0
2019-02-16T02:53:59.141Z,0
2019-02-16T02:55:01.242Z,0
2019-02-16T02:56:03.731Z,0
2019-02-16T02:57:05.858Z,0
2019-02-16T02:58:08.531Z,0
2019-02-16T02:59:10.929Z,0
2019-02-16T03:00:13.020Z,0
2019-02-16T03:01:15.112Z,0
2019-02-16T03:02:17.263Z,0
2019-02-16T03:03:19.342Z,0
2019-02-16T03:04:21.748Z,0
2019-02-16T03:05:24.169Z,0
2019-02-16T03:06:26.658Z,0
2019-02-16T03:07:29.409Z,0
2019-02-16T03:08:31.556Z,0
2019-02-16T03:09:33.960Z,0
2019-02-16T03:10:36.712Z,0
2019-02-16T03:11:39.197Z,0
2019-02-16T03:12:41.290Z,0
2019-02-16T03:13:43.377Z,0
2019-02-16T03:14:45.467Z,0
2019-02-16T03:15:47.581Z,0
2019-02-16T03:16:50.089Z,0
2019-02-16T03:17:52.632Z,0
2019-02-16T03:18:55.033Z,0
2019-02-16T03:19:57.114Z,0
2019-02-16T03:20:59.222Z,0
2019-02-16T03:22:03.010Z,0
2019-02-16T03:23:06.150Z,0
2019-02-16T03:24:08.553Z,0
2019-02-16T03:25:10.660Z,0
2019-02-16T03:26:13.047Z,0
2019-02-16T03:27:15.173Z,0
2019-02-16T03:28:17.270Z,0
2019-02-16T03:29:19.383Z,0
2019-02-16T03:30:22.051Z,0
2019-02-16T03:31:25.073Z,0
2019-02-16T03:32:27.619Z,0
2019-02-16T03:33:30.423Z,0
2019-02-16T03:34:32.839Z,0
2019-02-16T03:35:34.922Z,0
2019-02-16T03:36:39.853Z,0
2019-02-16T03:37:42.333Z,0
2019-02-16T03:38:44.431Z,0
2019-02-16T03:39:46.510Z,0
2019-02-16T03:40:48.641Z,0
2019-02-16T03:41:50.736Z,0
2019-02-16T03:42:52.822Z,0
2019-02-16T03:43:54.930Z,0
2019-02-16T03:44:57.357Z,0
2019-02-16T03:45:59.457Z,0
2019-02-16T03:47:01.540Z,0
2019-02-16T03:48:03.641Z,0
2019-02-16T03:49:05.752Z,0
2019-02-16T03:50:07.840Z,0
2019-02-16T03:51:10.233Z,0
2019-02-16T03:52:14.064Z,0
2019-02-16T03:53:16.369Z,0
2019-02-16T03:54:18.464Z,0
2019-02-16T03:55:21.071Z,0
2019-02-16T03:56:23.539Z,0
2019-02-16T03:57:25.644Z,0
2019-02-16T03:58:28.034Z,0
2019-02-16T03:59:30.489Z,0
2019-02-16T04:00:32.920Z,0
2019-02-16T04:01:35.389Z,0
2019-02-16T04:02:37.495Z,0
2019-02-16T04:03:39.573Z,0
2019-02-16T04:04:41.698Z,0
2019-02-16T04:05:44.067Z,0
2019-02-16T04:06:46.160Z,0
2019-02-16T04:07:48.590Z,0
2019-02-16T04:08:51.261Z,0
2019-02-16T04:09:53.679Z,0
2019-02-16T04:10:55.830Z,0
2019-02-16T04:11:58.612Z,0
2019-02-16T04:13:00.704Z,0
2019-02-16T04:14:02.806Z,0
2019-02-16T04:15:05.179Z,0
2019-02-16T04:16:07.533Z,0
2019-02-16T04:17:09.602Z,0
2019-02-16T04:18:11.673Z,0
2019-02-16T04:19:13.723Z,0
2019-02-16T04:20:16.477Z,0
2019-02-16T04:21:18.544Z,0
2019-02-16T04:22:24.431Z,0
2019-02-16T04:23:27.049Z,0
2019-02-16T04:24:29.528Z,0
2019-02-16T04:25:32.569Z,0
2019-02-16T04:26:34.630Z,0
2019-02-16T04:27:36.701Z,0
2019-02-16T04:28:39.025Z,0
2019-02-16T04:29:41.051Z,0
2019-02-16T04:30:43.472Z,0
2019-02-16T04:31:45.512Z,0
2019-02-16T04:32:47.531Z,0
2019-02-16T04:33:49.617Z,0
2019-02-16T04:34:51.651Z,0
2019-02-16T04:35:54.072Z,0
2019-02-16T04:36:56.109Z,0
2019-02-16T04:37:58.151Z,0
2019-02-16T04:39:00.553Z,0
2019-02-16T04:40:02.623Z,0
2019-02-16T04:41:04.670Z,0
2019-02-16T04:42:07.073Z,0
2019-02-16T04:43:09.135Z,0
2019-02-16T04:44:11.522Z,0
2019-02-16T04:45:13.565Z,0
2019-02-16T04:46:15.873Z,0
2019-02-16T04:47:17.925Z,0
2019-02-16T04:48:19.952Z,0
2019-02-16T04:49:22.268Z,0
2019-02-16T04:50:24.318Z,0
2019-02-16T04:51:26.335Z,0
2019-02-16T04:52:34.543Z,0
2019-02-16T04:53:37.608Z,0
2019-02-16T04:54:40.389Z,0
2019-02-16T04:55:42.508Z,0
2019-02-16T04:56:44.551Z,0
2019-02-16T04:57:47.131Z,0
2019-02-16T04:58:49.181Z,0
2019-02-16T04:59:51.220Z,0
2019-02-16T05:00:53.263Z,0
2019-02-16T05:01:55.817Z,0
2019-02-16T05:02:58.123Z,0
2019-02-16T05:04:00.445Z,0
2019-02-16T05:05:02.479Z,0
2019-02-16T05:06:04.512Z,0
2019-02-16T05:07:06.564Z,0
2019-02-16T05:08:08.600Z,0
2019-02-16T05:09:10.937Z,0
2019-02-16T05:10:12.962Z,0
2019-02-16T05:11:15.009Z,0
2019-02-16T05:12:17.089Z,0
2019-02-16T05:13:19.395Z,0
2019-02-16T05:14:21.439Z,0
2019-02-16T05:15:23.452Z,0
2019-02-16T05:16:25.794Z,0
2019-02-16T05:17:27.831Z,0
2019-02-16T05:18:29.866Z,0
2019-02-16T05:19:32.164Z,0
2019-02-16T05:20:34.203Z,0
2019-02-16T05:21:36.225Z,0
2019-02-16T05:22:44.477Z,0
2019-02-16T05:23:47.285Z,0
2019-02-16T05:24:49.691Z,0
2019-02-16T05:25:52.117Z,0
2019-02-16T05:26:54.176Z,0
2019-02-16T05:27:56.802Z,0
2019-02-16T05:28:58.833Z,0
2019-02-16T05:30:01.321Z,0
2019-02-16T05:31:03.730Z,0
2019-02-16T05:32:06.164Z,0
2019-02-16T05:33:08.246Z,0
2019-02-16T05:34:10.609Z,0
2019-02-16T05:35:12.692Z,0
2019-02-16T05:36:15.131Z,0
2019-02-16T05:37:17.548Z,0
2019-02-16T05:38:19.958Z,0
2019-02-16T05:39:21.997Z,0
2019-02-16T05:40:24.702Z,0
2019-02-16T05:41:27.133Z,0
2019-02-16T05:42:29.164Z,0
2019-02-16T05:43:31.219Z,0
2019-02-16T05:44:33.525Z,0
2019-02-16T05:45:35.564Z,0
2019-02-16T05:46:37.587Z,0
2019-02-16T05:47:39.607Z,0
2019-02-16T05:48:41.656Z,0
2019-02-16T05:49:44.253Z,0
2019-02-16T05:50:46.590Z,0
2019-02-16T05:51:49.004Z,0
2019-02-16T05:52:54.289Z,0
2019-02-16T05:53:56.975Z,0
2019-02-16T05:54:59.675Z,4
2019-02-16T05:56:01.924Z,4
2019-02-16T05:57:04.239Z,0
2019-02-16T05:58:06.581Z,4
2019-02-16T05:59:08.911Z,4
2019-02-16T06:00:10.932Z,0
2019-02-16T06:01:13.274Z,4
2019-02-16T06:02:15.318Z,8
2019-02-16T06:03:17.344Z,8
2019-02-16T06:04:19.783Z,8
2019-02-16T06:05:21.812Z,8
2019-02-16T06:06:23.835Z,12
2019-02-16T06:07:25.878Z,12
2019-02-16T06:08:28.222Z,16
2019-02-16T06:09:30.238Z,20
2019-02-16T06:10:32.586Z,24
2019-02-16T06:11:34.897Z,28
2019-02-16T06:12:37.580Z,36
2019-02-16T06:13:39.625Z,44
2019-02-16T06:14:41.651Z,52
2019-02-16T06:15:44.028Z,64
2019-02-16T06:16:46.048Z,72
2019-02-16T06:17:48.574Z,84
2019-02-16T06:18:50.610Z,100
2019-02-16T06:19:52.646Z,116
2019-02-16T06:20:54.659Z,132
2019-02-16T06:21:56.750Z,148
2019-02-16T06:23:04.086Z,168
2019-02-16T06:24:06.853Z,192
2019-02-16T06:25:08.878Z,220
2019-02-16T06:26:11.313Z,244
2019-02-16T06:27:14.255Z,272
2019-02-16T06:28:16.278Z,304
2019-02-16T06:29:18.336Z,332
2019-02-16T06:30:20.353Z,368
2019-02-16T06:31:22.397Z,400
2019-02-16T06:32:24.446Z,440
2019-02-16T06:33:26.468Z,476
2019-02-16T06:34:28.500Z,516
2019-02-16T06:35:33.545Z,560
2019-02-16T06:36:35.568Z,608
2019-02-16T06:37:38.278Z,652
2019-02-16T06:38:40.596Z,696
2019-02-16T06:39:42.909Z,748
2019-02-16T06:40:44.935Z,792
2019-02-16T06:41:46.997Z,840
2019-02-16T06:42:49.410Z,892
2019-02-16T06:43:51.735Z,944
2019-02-16T06:44:54.169Z,996
2019-02-16T06:45:56.192Z,1048
2019-02-16T06:46:58.238Z,1100
2019-02-16T06:48:00.260Z,1152
2019-02-16T06:49:02.296Z,1204
2019-02-16T06:50:04.312Z,1260
2019-02-16T06:51:06.348Z,1312
2019-02-16T06:52:08.374Z,1368
2019-02-16T06:53:13.137Z,1420
2019-02-16T06:54:15.949Z,1480
2019-02-16T06:55:17.964Z,1532
2019-02-16T06:56:19.999Z,1588
2019-02-16T06:57:22.020Z,1648
2019-02-16T06:58:24.100Z,1704
2019-02-16T06:59:26.118Z,1760
2019-02-16T07:00:28.173Z,1812
2019-02-16T07:01:30.206Z,1868
2019-02-16T07:02:34.283Z,1916
2019-02-16T07:03:36.606Z,1968
2019-02-16T07:04:38.634Z,2016
2019-02-16T07:05:40.672Z,2052
2019-02-16T07:06:42.749Z,2088
2019-02-16T07:07:45.371Z,2140
2019-02-16T07:08:47.405Z,2196
2019-02-16T07:09:49.724Z,2268
2019-02-16T07:10:51.749Z,2328
2019-02-16T07:11:53.778Z,2380
2019-02-16T07:12:55.814Z,2428
2019-02-16T07:13:57.843Z,2476
2019-02-16T07:15:00.350Z,2524
2019-02-16T07:16:02.441Z,2568
2019-02-16T07:17:04.468Z,2616
2019-02-16T07:18:06.492Z,2664
2019-02-16T07:19:08.527Z,2708
2019-02-16T07:20:10.835Z,2756
2019-02-16T07:21:12.878Z,2800
2019-02-16T07:22:14.911Z,2852
2019-02-16T07:23:22.369Z,2904
2019-02-16T07:24:25.074Z,2980
2019-02-16T07:25:27.510Z,3464
2019-02-16T07:26:29.546Z,5128
2019-02-16T07:27:31.876Z,6684
2019-02-16T07:28:34.275Z,8072
2019-02-16T07:29:36.302Z,10240
2019-02-16T07:30:38.331Z,10412
2019-02-16T07:31:40.381Z,10384
2019-02-16T07:32:42.432Z,10852
2019-02-16T07:33:44.469Z,11432
2019-02-16T07:34:46.504Z,11776
2019-02-16T07:35:48.821Z,11136
2019-02-16T07:36:50.880Z,10712
2019-02-16T07:37:53.091Z,11716
2019-02-16T07:38:56.534Z,13376
2019-02-16T07:39:58.569Z,14096
2019-02-16T07:41:00.604Z,14040
2019-02-16T07:42:02.632Z,15264
2019-02-16T07:43:04.669Z,15808
2019-02-16T07:44:06.740Z,15168
2019-02-16T07:45:09.061Z,15264
2019-02-16T07:46:11.115Z,15168
2019-02-16T07:47:13.143Z,16320
2019-02-16T07:48:15.168Z,17760
2019-02-16T07:49:17.775Z,18304
2019-02-16T07:50:19.815Z,18944
2019-02-16T07:51:21.849Z,19392
2019-02-16T07:52:23.892Z,19584
2019-02-16T07:53:31.247Z,19200
2019-02-16T07:54:34.027Z,18336
2019-02-16T07:55:36.054Z,18656
2019-02-16T07:56:38.473Z,16384
2019-02-16T07:57:40.492Z,16800
2019-02-16T07:58:42.824Z,21152
2019-02-16T07:59:44.861Z,20288
2019-02-16T08:00:47.445Z,20480
2019-02-16T08:01:49.491Z,21760
2019-02-16T08:02:51.514Z,21184
2019-02-16T08:03:53.546Z,20320
2019-02-16T08:04:55.569Z,21312
2019-02-16T08:05:57.895Z,22176
2019-02-16T08:06:59.932Z,23840
2019-02-16T08:08:01.987Z,25312
2019-02-16T08:09:04.040Z,25152
2019-02-16T08:10:06.110Z,26624
2019-02-16T08:11:08.156Z,28640
2019-02-16T08:12:10.185Z,31328
2019-02-16T08:13:12.214Z,29376
2019-02-16T08:14:14.543Z,27168
2019-02-16T08:15:16.586Z,27744
2019-02-16T08:16:18.618Z,29408
2019-02-16T08:17:20.657Z,30784
2019-02-16T08:18:22.687Z,31328
2019-02-16T08:19:25.098Z,31200
2019-02-16T08:20:27.531Z,30400
2019-02-16T08:21:29.581Z,30848
2019-02-16T08:22:31.604Z,32032
2019-02-16T08:23:40.098Z,30784
2019-02-16T08:24:42.721Z,30400
2019-02-16T08:25:44.756Z,30496
2019-02-16T08:26:46.800Z,30656
2019-02-16T08:27:48.826Z,31936
2019-02-16T08:28:50.862Z,33408
2019-02-16T08:29:52.889Z,34432
2019-02-16T08:30:54.943Z,35168
2019-02-16T08:31:57.249Z,36000
2019-02-16T08:32:59.337Z,36832
2019-02-16T08:34:01.374Z,38560
2019-02-16T08:35:03.395Z,39136
2019-02-16T08:36:05.446Z,37632
2019-02-16T08:37:07.508Z,34848
2019-02-16T08:38:10.113Z,34560
2019-02-16T08:39:12.141Z,35936
2019-02-16T08:40:14.209Z,38176
2019-02-16T08:41:16.244Z,39264
2019-02-16T08:42:18.280Z,39296
2019-02-16T08:43:20.345Z,39904
2019-02-16T08:44:22.383Z,38656
2019-02-16T08:45:24.471Z,37952
2019-02-16T08:46:26.534Z,38592
2019-02-16T08:47:28.575Z,39648
2019-02-16T08:48:30.665Z,41696
2019-02-16T08:49:32.708Z,43424
2019-02-16T08:50:34.756Z,44704
2019-02-16T08:51:36.797Z,44160
2019-02-16T08:52:38.831Z,44608
2019-02-16T08:53:49.219Z,46336
2019-02-16T08:54:52.097Z,48160
2019-02-16T08:55:54.123Z,47392
2019-02-16T08:56:56.174Z,47584
2019-02-16T08:57:58.216Z,47168
2019-02-16T08:59:00.246Z,46336
2019-02-16T09:00:02.976Z,46272
2019-02-16T09:01:05.306Z,45472
2019-02-16T09:02:07.345Z,46112
2019-02-16T09:03:09.375Z,44896
2019-02-16T09:04:11.425Z,45056
2019-02-16T09:05:13.465Z,50368
2019-02-16T09:06:15.522Z,52384
2019-02-16T09:07:17.569Z,50528
2019-02-16T09:08:19.596Z,49216
2019-02-16T09:09:21.646Z,51744
2019-02-16T09:10:23.685Z,50592
2019-02-16T09:11:25.734Z,50496
2019-02-16T09:12:27.797Z,49408
2019-02-16T09:13:29.855Z,51712
2019-02-16T09:14:32.286Z,54400
2019-02-16T09:15:34.325Z,54336
2019-02-16T09:16:38.360Z,54016
2019-02-16T09:17:40.488Z,54336
2019-02-16T09:18:42.915Z,57312
2019-02-16T09:19:44.974Z,62208
2019-02-16T09:20:47.048Z,64288
2019-02-16T09:21:49.365Z,60256
2019-02-16T09:22:51.700Z,60096
2019-02-16T09:23:59.010Z,61664
2019-02-16T09:25:01.737Z,56864
2019-02-16T09:26:04.094Z,54944
2019-02-16T09:27:06.141Z,53024
2019-02-16T09:28:08.203Z,49792
2019-02-16T09:29:10.232Z,49152
2019-02-16T09:30:12.330Z,48384
2019-02-16T09:31:14.667Z,45920
2019-02-16T09:32:16.992Z,45920
2019-02-16T09:33:19.399Z,46528
2019-02-16T09:34:21.489Z,48480
2019-02-16T09:35:23.535Z,49280
2019-02-16T09:36:25.569Z,50144
2019-02-16T09:37:28.855Z,51232
2019-02-16T09:38:31.050Z,51104
2019-02-16T09:39:33.155Z,50624
2019-02-16T09:40:35.221Z,51136
2019-02-16T09:41:37.258Z,51968
2019-02-16T09:42:39.594Z,51776
2019-02-16T09:43:41.932Z,51168
2019-02-16T09:44:44.009Z,48768
2019-02-16T09:45:46.060Z,47008
2019-02-16T09:46:48.110Z,46656
2019-02-16T09:47:50.159Z,47168
2019-02-16T09:48:52.206Z,48064
2019-02-16T09:49:54.663Z,49888
2019-02-16T09:50:56.698Z,52000
2019-02-16T09:51:58.805Z,52960
2019-02-16T09:53:00.855Z,50240
2019-02-16T09:54:08.287Z,51296
2019-02-16T09:55:10.721Z,51488
2019-02-16T09:56:12.767Z,48992
2019-02-16T09:57:14.804Z,50080
2019-02-16T09:58:16.905Z,51008
2019-02-16T09:59:19.738Z,51776
2019-02-16T10:00:21.781Z,53600
2019-02-16T10:01:23.826Z,54752
2019-02-16T10:02:25.884Z,55104
2019-02-16T10:03:28.213Z,56736
2019-02-16T10:04:30.257Z,57024
2019-02-16T10:05:32.576Z,57152
2019-02-16T10:06:34.644Z,54432
2019-02-16T10:07:36.697Z,51040
2019-02-16T10:08:38.746Z,49088
2019-02-16T10:09:40.788Z,46816
2019-02-16T10:10:42.850Z,45664
2019-02-16T10:11:45.468Z,45600
2019-02-16T10:12:47.895Z,45952
2019-02-16T10:13:49.949Z,48864
2019-02-16T10:14:51.979Z,52800
2019-02-16T10:15:54.042Z,53408
2019-02-16T10:16:56.086Z,55264
2019-02-16T10:17:58.131Z,59616
2019-02-16T10:19:00.170Z,62208
2019-02-16T10:20:02.904Z,61952
2019-02-16T10:21:04.952Z,61280
2019-02-16T10:22:06.998Z,61120
2019-02-16T10:23:09.084Z,61120
2019-02-16T10:24:17.510Z,62528
2019-02-16T10:25:20.283Z,62144
2019-02-16T10:26:22.338Z,62048
2019-02-16T10:27:24.390Z,63008
2019-02-16T10:28:26.433Z,61632
2019-02-16T10:29:28.486Z,62144
2019-02-16T10:30:30.534Z,63552
2019-02-16T10:31:32.862Z,62368
2019-02-16T10:32:34.925Z,58464
2019-02-16T10:33:37.007Z,58752
2019-02-16T10:34:39.337Z,60352
2019-02-16T10:35:41.395Z,60704
2019-02-16T10:36:43.450Z,60800
2019-02-16T10:37:45.527Z,61664
2019-02-16T10:38:47.594Z,62464
2019-02-16T10:39:49.653Z,59744
2019-02-16T10:40:52.048Z,56768
2019-02-16T10:41:54.094Z,59680
2019-02-16T10:42:56.157Z,62976
2019-02-16T10:43:58.202Z,61632
2019-02-16T10:45:02.280Z,61440
2019-02-16T10:46:04.621Z,62880
2019-02-16T10:47:06.664Z,63328
2019-02-16T10:48:08.735Z,63936
2019-02-16T10:49:10.775Z,67328
2019-02-16T10:50:12.877Z,73024
2019-02-16T10:51:14.971Z,72000
2019-02-16T10:52:17.088Z,67840
2019-02-16T10:53:19.127Z,68992
2019-02-16T10:54:27.194Z,70880
2019-02-16T10:55:31.782Z,72704
2019-02-16T10:56:34.229Z,73888
2019-02-16T10:57:36.579Z,74976
2019-02-16T10:58:38.919Z,76832
2019-02-16T10:59:40.975Z,75520
2019-02-16T11:00:43.033Z,71008
2019-02-16T11:01:45.084Z,70624
2019-02-16T11:02:47.424Z,74720
2019-02-16T11:03:49.495Z,73056
2019-02-16T11:04:51.542Z,71872
2019-02-16T11:05:53.891Z,72576
2019-02-16T11:06:55.944Z,71872
2019-02-16T11:07:58.643Z,67392
2019-02-16T11:09:00.684Z,65920
2019-02-16T11:10:03.043Z,69024
2019-02-16T11:11:05.103Z,71168
2019-02-16T11:12:07.494Z,72544
2019-02-16T11:13:09.870Z,75264
2019-02-16T11:14:11.930Z,74464
2019-02-16T11:15:14.393Z,73984
2019-02-16T11:16:16.453Z,72640
2019-02-16T11:17:18.556Z,67808
2019-02-16T11:18:20.613Z,66944
2019-02-16T11:19:23.081Z,67072
2019-02-16T11:20:25.175Z,67296
2019-02-16T11:21:27.240Z,64960
2019-02-16T11:22:29.294Z,62816
2019-02-16T11:23:31.392Z,63040
2019-02-16T11:24:35.966Z,63712
2019-02-16T11:25:38.329Z,64320
2019-02-16T11:26:40.375Z,64800
2019-02-16T11:27:42.435Z,63296
2019-02-16T11:28:44.577Z,63360
2019-02-16T11:29:46.624Z,64096
2019-02-16T11:30:48.724Z,67040
2019-02-16T11:31:50.849Z,67936
2019-02-16T11:32:53.172Z,66848
2019-02-16T11:33:55.223Z,66528
2019-02-16T11:34:57.278Z,70784
2019-02-16T11:35:59.355Z,70496
2019-02-16T11:37:01.483Z,69920
2019-02-16T11:38:03.577Z,72416
2019-02-16T11:39:06.004Z,71488
2019-02-16T11:40:08.450Z,69664
2019-02-16T11:41:18.549Z,68480
2019-02-16T11:42:21.248Z,68768
2019-02-16T11:43:23.303Z,68512
2019-02-16T11:44:25.656Z,65408
2019-02-16T11:45:27.699Z,65344
2019-02-16T11:46:29.771Z,65504
2019-02-16T11:47:32.206Z,65184
2019-02-16T11:48:34.256Z,67904
2019-02-16T11:49:36.298Z,67168
2019-02-16T11:50:38.359Z,67104
2019-02-16T11:51:40.409Z,66336
2019-02-16T11:52:42.468Z,64480
2019-02-16T11:53:44.549Z,61984
2019-02-16T11:54:46.586Z,64640
2019-02-16T11:55:48.659Z,65792
2019-02-16T11:56:50.997Z,67840
2019-02-16T11:57:53.057Z,70432
2019-02-16T11:58:55.097Z,72448
2019-02-16T11:59:57.170Z,59840
2019-02-16T12:00:59.222Z,63648
2019-02-16T12:02:01.276Z,62240
2019-02-16T12:03:03.704Z,68064
2019-02-16T12:04:06.159Z,67744
2019-02-16T12:05:08.606Z,65696
2019-02-16T12:06:11.036Z,64064
2019-02-16T12:07:13.090Z,61824
2019-02-16T12:08:15.536Z,62272
2019-02-16T12:09:17.602Z,66560
2019-02-16T12:10:19.679Z,69984
2019-02-16T12:11:22.026Z,66720
2019-02-16T12:12:24.066Z,58784
2019-02-16T12:13:26.124Z,55456
2019-02-16T12:14:28.182Z,57056
2019-02-16T12:15:30.225Z,61216
2019-02-16T12:16:32.296Z,64960
2019-02-16T12:17:34.388Z,63360
2019-02-16T12:18:36.430Z,62080
2019-02-16T12:19:38.885Z,63744
2019-02-16T12:20:40.934Z,67456
2019-02-16T12:21:42.991Z,68448
2019-02-16T12:22:45.046Z,67264
2019-02-16T12:23:47.393Z,66400
2019-02-16T12:25:03.190Z,65664
2019-02-16T12:26:08.513Z,64896
2019-02-16T12:27:10.572Z,66784
2019-02-16T12:28:12.606Z,67584
2019-02-16T12:29:15.048Z,66592
2019-02-16T12:30:17.106Z,66528
2019-02-16T12:31:19.164Z,63968
2019-02-16T12:32:21.206Z,63808
2019-02-16T12:33:23.263Z,57952
2019-02-16T12:34:25.596Z,62976
2019-02-16T12:35:27.768Z,56992
2019-02-16T12:36:29.842Z,60256
2019-02-16T12:37:32.174Z,58688
2019-02-16T12:38:34.265Z,60800
2019-02-16T12:39:36.308Z,64384
2019-02-16T12:40:38.357Z,63680
2019-02-16T12:41:40.447Z,62464
2019-02-16T12:42:42.491Z,61120
2019-02-16T12:43:44.547Z,63232
2019-02-16T12:44:46.605Z,65920
2019-02-16T12:45:51.033Z,67488
2019-02-16T12:46:53.457Z,71840
2019-02-16T12:47:55.526Z,69632
2019-02-16T12:48:57.567Z,67712
2019-02-16T12:49:59.619Z,67360
2019-02-16T12:51:01.743Z,67552
2019-02-16T12:52:03.805Z,64704
2019-02-16T12:53:05.907Z,64352
2019-02-16T12:54:07.960Z,67008
2019-02-16T12:55:14.570Z,69440
2019-02-16T12:56:17.090Z,70592
2019-02-16T12:57:19.153Z,69632
2019-02-16T12:58:21.200Z,67520
2019-02-16T12:59:23.249Z,57504
2019-02-16T13:00:25.696Z,58208
2019-02-16T13:01:27.734Z,68160
2019-02-16T13:02:29.844Z,61248
2019-02-16T13:03:31.938Z,57984
2019-02-16T13:04:34.000Z,51008
2019-02-16T13:05:36.043Z,44672
2019-02-16T13:06:38.112Z,49216
2019-02-16T13:07:40.857Z,52512
2019-02-16T13:08:42.930Z,53728
2019-02-16T13:09:45.064Z,49952
2019-02-16T13:10:47.191Z,46240
2019-02-16T13:11:49.294Z,41472
2019-02-16T13:12:51.707Z,46176
2019-02-16T13:13:54.094Z,44576
2019-02-16T13:14:57.959Z,42688
2019-02-16T13:16:00.198Z,51072
2019-02-16T13:17:02.929Z,56352
2019-02-16T13:18:04.987Z,54144
2019-02-16T13:19:07.053Z,48480
2019-02-16T13:20:09.099Z,38240
2019-02-16T13:21:11.433Z,35904
2019-02-16T13:22:13.491Z,34688
2019-02-16T13:23:16.500Z,45344
2019-02-16T13:24:18.553Z,44896
2019-02-16T13:25:24.303Z,45760
2019-02-16T13:26:27.049Z,43872
2019-02-16T13:27:29.121Z,48128
2019-02-16T13:28:31.176Z,47456
2019-02-16T13:29:33.238Z,45216
2019-02-16T13:30:35.276Z,44928
2019-02-16T13:31:37.339Z,48544
2019-02-16T13:32:39.387Z,48928
2019-02-16T13:33:41.433Z,38528
2019-02-16T13:34:43.501Z,37856
2019-02-16T13:35:45.542Z,38144
2019-02-16T13:36:47.592Z,40384
2019-02-16T13:37:49.690Z,29216
2019-02-16T13:38:51.748Z,39424
2019-02-16T13:39:54.181Z,39744
2019-02-16T13:40:56.230Z,31616
2019-02-16T13:41:58.301Z,25792
2019-02-16T13:43:00.334Z,37056
2019-02-16T13:44:02.399Z,36960
2019-02-16T13:45:04.858Z,39552
2019-02-16T13:46:07.196Z,36384
2019-02-16T13:47:09.558Z,30016
2019-02-16T13:48:11.999Z,29472
2019-02-16T13:49:14.046Z,29408
2019-02-16T13:50:16.106Z,31200
2019-02-16T13:51:18.446Z,30560
2019-02-16T13:52:20.480Z,24896
2019-02-16T13:53:22.542Z,25952
2019-02-16T13:54:24.859Z,29760
2019-02-16T13:55:33.169Z,31712
2019-02-16T13:56:38.440Z,24672
2019-02-16T13:57:40.505Z,26368
2019-02-16T13:58:42.839Z,23680
2019-02-16T13:59:45.260Z,24992
2019-02-16T14:00:47.307Z,21056
2019-02-16T14:01:49.355Z,24544
2019-02-16T14:02:51.470Z,22176
2019-02-16T14:03:53.509Z,22560
2019-02-16T14:04:55.557Z,19552
2019-02-16T14:05:57.601Z,17504
2019-02-16T14:06:59.641Z,19264
2019-02-16T14:08:02.090Z,21440
2019-02-16T14:09:04.190Z,20320
2019-02-16T14:10:06.525Z,20064
2019-02-16T14:11:08.566Z,19552
2019-02-16T14:12:10.618Z,18784
2019-02-16T14:13:12.656Z,22528
2019-02-16T14:14:15.091Z,23680
2019-02-16T14:15:17.138Z,17408